Time;durP1;ratioP1;P1;durP2;ratioP2;P2;SDS_P1;SDS_P2;PMS_P1;PMS_P2;Temp;Humidity;BMP_temperature;BMP_pressure;BME280_temperature;BME280_humidity;BME280_pressure;Samples;Min_cycle;Max_cycle;Signal;HPM_P1;HPM_P2
2023/08/02 00:01:55;;;;;;;2.67;1.70;;;;;;;16.08;100.00;97255.41;5055617;28;20205;-78
2023/08/02 00:04:22;;;;;;;2.80;1.50;;;;;;;16.05;100.00;97258.63;5055568;28;20566;-78
2023/08/02 00:06:48;;;;;;;2.53;1.93;;;;;;;16.09;100.00;97243.59;5056577;28;20212;-78
2023/08/02 00:09:15;;;;;;;2.70;1.70;;;;;;;16.12;100.00;97242.25;5056617;28;20227;-78
2023/08/02 00:11:41;;;;;;;2.63;1.80;;;;;;;16.17;100.00;97252.97;5056108;28;20211;-78
2023/08/02 00:14:07;;;;;;;2.97;1.90;;;;;;;16.21;100.00;97246.78;5058801;28;20201;-78
2023/08/02 00:16:34;;;;;;;3.17;1.60;;;;;;;16.24;100.00;97234.72;5060107;28;20211;-80
2023/08/02 00:19:00;;;;;;;2.07;1.67;;;;;;;16.17;100.00;97242.25;5059636;28;20743;-78
2023/08/02 00:21:27;;;;;;;2.23;1.60;;;;;;;16.21;100.00;97237.94;5061178;28;20555;-78
2023/08/02 00:23:53;;;;;;;3.23;2.10;;;;;;;16.22;100.00;97232.31;5059595;28;20212;-78
2023/08/02 00:26:19;;;;;;;3.53;1.70;;;;;;;16.27;100.00;97226.91;5059337;28;20283;-78
2023/08/02 00:28:46;;;;;;;3.87;1.87;;;;;;;16.24;100.00;97226.66;5059282;28;20225;-78
2023/08/02 00:31:12;;;;;;;4.53;1.70;;;;;;;16.24;100.00;97218.63;5064758;28;20208;-78
2023/08/02 00:33:38;;;;;;;3.60;1.80;;;;;;;16.23;100.00;97215.13;5079437;28;20205;-78
2023/08/02 00:36:05;;;;;;;2.10;1.77;;;;;;;16.24;100.00;97211.38;5077774;28;20197;-78
2023/08/02 00:38:32;;;;;;;2.73;1.83;;;;;;;16.25;100.00;97204.94;5078977;28;20228;-78
2023/08/02 00:41:05;;;;;;;4.90;1.80;;;;;;;16.19;100.00;97200.66;5079146;28;20664;-78
2023/08/02 00:43:39;;;;;;;2.80;1.90;;;;;;;16.20;100.00;97201.47;5077058;28;20201;-78
2023/08/02 00:46:07;;;;;;;5.47;2.00;;;;;;;16.23;100.00;97190.19;5059632;28;20224;-78
2023/08/02 00:48:34;;;;;;;4.40;1.93;;;;;;;16.22;100.00;97184.03;5059161;28;20229;-78
2023/08/02 00:51:02;;;;;;;2.00;1.73;;;;;;;16.29;100.00;97178.38;5058953;28;20688;-78
2023/08/02 00:53:28;;;;;;;2.63;1.63;;;;;;;16.33;100.00;97180.22;5061127;28;20205;-78
2023/08/02 00:55:56;;;;;;;2.20;1.80;;;;;;;16.31;100.00;97176.19;5079195;28;20200;-78
2023/08/02 00:58:23;;;;;;;2.00;1.67;;;;;;;16.24;100.00;97171.13;5078608;28;20224;-78
2023/08/02 01:00:49;;;;;;;4.00;1.70;;;;;;;16.26;100.00;97176.22;5076609;28;20209;-78
2023/08/02 01:03:16;;;;;;;2.10;1.90;;;;;;;16.21;100.00;97171.72;5058569;28;20205;-78
2023/08/02 01:05:56;;;;;;;2.23;1.80;;;;;;;16.12;100.00;97176.03;5059349;28;20664;-78
2023/08/02 01:08:32;;;;;;;2.83;2.10;;;;;;;16.03;100.00;97180.38;5057554;28;20656;-78
2023/08/02 01:11:15;;;;;;;2.40;1.87;;;;;;;15.95;100.00;97180.13;5060015;28;20197;-78
2023/08/02 01:13:46;;;;;;;2.73;2.10;;;;;;;15.87;100.00;97180.69;5058725;28;20559;-78
2023/08/02 01:16:13;;;;;;;3.73;2.20;;;;;;;15.84;100.00;97186.59;5057840;28;20192;-78
2023/08/02 01:18:40;;;;;;;2.13;1.80;;;;;;;15.77;100.00;97186.88;5057800;28;20689;-78
2023/08/02 01:21:06;;;;;;;3.00;2.00;;;;;;;15.75;100.00;97177.50;5058089;28;20227;-78
2023/08/02 01:23:32;;;;;;;4.20;2.27;;;;;;;15.68;100.00;97174.31;5076647;28;20201;-78
2023/08/02 01:26:01;;;;;;;4.97;2.23;;;;;;;15.65;100.00;97162.25;5060720;28;20304;-78
2023/08/02 01:28:29;;;;;;;4.97;2.20;;;;;;;15.60;100.00;97159.59;5057964;28;20236;-78
2023/08/02 01:30:55;;;;;;;2.93;2.33;;;;;;;15.60;100.00;97150.78;5058392;28;20300;-78
2023/08/02 01:33:23;;;;;;;3.03;2.10;;;;;;;15.56;100.00;97142.44;5057750;28;20215;-78
2023/08/02 01:35:50;;;;;;;4.13;2.20;;;;;;;15.61;100.00;97139.75;5071111;28;20213;-78
2023/08/02 01:38:17;;;;;;;3.97;2.17;;;;;;;15.63;100.00;97142.97;5078050;28;20201;-78
2023/08/02 01:40:43;;;;;;;3.87;1.90;;;;;;;15.59;100.00;97141.91;5078015;28;20682;-78
2023/08/02 01:43:11;;;;;;;3.07;2.00;;;;;;;15.54;100.00;97143.78;5077187;28;20675;-78
2023/08/02 01:45:38;;;;;;;6.03;2.20;;;;;;;15.44;100.00;97133.13;5066014;28;20208;-78
2023/08/02 01:48:04;;;;;;;4.37;2.30;;;;;;;15.50;100.00;97126.66;5057404;28;20221;-80
2023/08/02 01:50:31;;;;;;;2.13;1.90;;;;;;;15.36;100.00;97130.97;5058175;28;20212;-78
2023/08/02 01:52:57;;;;;;;2.43;1.70;;;;;;;15.37;100.00;97130.72;5060939;28;20215;-78
2023/08/02 01:55:23;;;;;;;3.27;2.30;;;;;;;15.38;100.00;97118.94;5077130;28;20206;-78
2023/08/02 01:57:50;;;;;;;3.97;2.10;;;;;;;15.35;100.00;97124.84;5077924;28;20214;-78
2023/08/02 02:00:16;;;;;;;4.10;2.43;;;;;;;15.37;100.00;97132.63;5075714;28;20222;-78
2023/08/02 02:02:42;;;;;;;3.73;2.00;;;;;;;15.26;100.00;97142.50;5078165;28;20201;-78
2023/08/02 02:05:10;;;;;;;3.03;2.00;;;;;;;15.37;100.00;97146.78;5077342;28;20307;-78
2023/08/02 02:07:36;;;;;;;3.13;1.50;;;;;;;15.68;100.00;97126.88;5075873;28;20222;-77
2023/08/02 02:10:02;;;;;;;2.53;1.70;;;;;;;15.75;100.00;97113.19;5075969;28;20225;-77
2023/08/02 02:12:29;;;;;;;3.53;2.00;;;;;;;15.84;100.00;97106.19;5056758;28;20204;-78
2023/08/02 02:14:55;;;;;;;1.87;1.67;;;;;;;15.91;100.00;97106.69;5058255;28;20553;-78
2023/08/02 02:17:22;;;;;;;2.20;1.60;;;;;;;16.00;100.00;97103.16;5056734;28;20204;-78
2023/08/02 02:19:48;;;;;;;2.50;1.83;;;;;;;16.02;100.00;97095.63;5057827;28;20303;-78
2023/08/02 02:22:15;;;;;;;2.80;1.53;;;;;;;16.06;100.00;97096.69;5056511;28;20212;-78
2023/08/02 02:24:41;;;;;;;4.93;1.70;;;;;;;16.09;100.00;97092.66;5056922;28;20211;-78
2023/08/02 02:27:07;;;;;;;2.10;1.50;;;;;;;16.10;100.00;97097.75;5056231;28;20228;-78
2023/08/02 02:29:34;;;;;;;3.03;1.70;;;;;;;16.11;100.00;97085.94;5058061;28;20225;-78
2023/08/02 02:32:00;;;;;;;2.20;1.60;;;;;;;16.18;100.00;97085.63;5075823;28;20215;-78
2023/08/02 02:34:26;;;;;;;2.70;1.70;;;;;;;16.24;100.00;97079.94;5075830;28;20212;-78
2023/08/02 02:36:53;;;;;;;2.63;1.87;;;;;;;16.26;100.00;97077.81;5076035;28;20204;-78
2023/08/02 02:39:19;;;;;;;2.43;1.67;;;;;;;16.31;100.00;97069.72;5074213;28;20219;-78
2023/08/02 02:41:45;;;;;;;3.50;1.90;;;;;;;16.33;100.00;97062.19;5076201;28;20211;-78
2023/08/02 02:44:12;;;;;;;2.80;1.60;;;;;;;16.34;100.00;97063.81;5076820;28;20203;-78
2023/08/02 02:46:38;;;;;;;3.10;1.53;;;;;;;16.34;100.00;97063.00;5070494;28;20213;-78
2023/08/02 02:49:04;;;;;;;2.80;1.47;;;;;;;16.36;100.00;97058.97;5055885;28;20225;-78
2023/08/02 02:51:31;;;;;;;2.53;1.60;;;;;;;16.36;100.00;97066.19;5055527;28;20571;-78
2023/08/02 02:53:57;;;;;;;3.20;1.97;;;;;;;16.35;100.00;97067.28;5055628;28;20663;-78
2023/08/02 02:56:23;;;;;;;2.10;1.63;;;;;;;16.36;100.00;97067.00;5057270;28;20201;-77
2023/08/02 02:58:50;;;;;;;3.37;1.93;;;;;;;16.33;100.00;97070.25;5075449;28;20225;-78
2023/08/02 03:01:16;;;;;;;3.70;1.50;;;;;;;16.43;100.00;97062.19;5075275;28;20207;-78
2023/08/02 03:03:43;;;;;;;2.50;1.70;;;;;;;16.47;100.00;97052.47;5075253;28;20215;-78
2023/08/02 03:06:09;;;;;;;2.83;1.50;;;;;;;16.53;100.00;97054.03;5075848;28;20201;-78
2023/08/02 03:08:35;;;;;;;2.17;1.60;;;;;;;16.50;100.00;97043.03;5055599;28;20232;-78
2023/08/02 03:11:02;;;;;;;5.03;1.90;;;;;;;16.50;100.00;97043.03;5055388;28;20209;-78
2023/08/02 03:13:28;;;;;;;3.30;1.60;;;;;;;16.48;100.00;97042.53;5054992;28;20205;-80
2023/08/02 03:15:54;;;;;;;3.00;1.80;;;;;;;16.49;100.00;97034.22;5056599;28;20208;-80
2023/08/02 03:18:21;;;;;;;1.63;1.50;;;;;;;16.48;100.00;97027.25;5073963;28;20585;-80
2023/08/02 03:20:47;;;;;;;4.53;1.63;;;;;;;16.51;100.00;97026.66;5071288;28;20198;-79
2023/08/02 03:23:14;;;;;;;3.23;1.60;;;;;;;16.50;100.00;97030.44;5056620;28;20204;-80
2023/08/02 03:25:40;;;;;;;2.23;1.57;;;;;;;16.51;100.00;97024.00;5074852;28;20207;-80
2023/08/02 03:28:06;;;;;;;2.23;1.47;;;;;;;16.53;100.00;97027.22;5075468;28;20661;-80
2023/08/02 03:30:33;;;;;;;2.40;1.67;;;;;;;16.54;100.00;97023.44;5075696;28;20215;-80
2023/08/02 03:32:59;;;;;;;3.63;1.73;;;;;;;16.57;100.00;97022.88;5075356;28;20208;-78
2023/08/02 03:35:26;;;;;;;2.73;1.60;;;;;;;16.56;100.00;97018.56;5074155;28;20207;-78
2023/08/02 03:37:52;;;;;;;2.27;1.70;;;;;;;16.54;100.00;97018.06;5073317;28;20197;-78
2023/08/02 03:40:19;;;;;;;3.63;1.80;;;;;;;16.59;100.00;97014.53;5054930;28;20232;-78
2023/08/02 03:42:45;;;;;;;4.27;1.40;;;;;;;16.60;100.00;97006.19;5055051;28;20201;-78
2023/08/02 03:45:12;;;;;;;1.50;1.40;;;;;;;16.59;100.00;97001.13;5057537;28;20216;-78
2023/08/02 03:47:38;;;;;;;1.60;1.50;;;;;;;16.59;100.00;97001.94;5054842;28;20248;-78
2023/08/02 03:50:05;;;;;;;2.23;1.73;;;;;;;16.62;100.00;97001.38;5055191;28;20312;-78
2023/08/02 03:52:31;;;;;;;3.43;1.60;;;;;;;16.64;100.00;96993.03;5055343;28;20301;-78
2023/08/02 03:54:57;;;;;;;5.17;1.77;;;;;;;16.62;100.00;96985.28;5055604;28;20201;-78
2023/08/02 03:57:23;;;;;;;2.43;1.50;;;;;;;16.77;100.00;96985.13;5071853;28;20262;-78
2023/08/02 03:59:49;;;;;;;4.43;1.70;;;;;;;16.66;100.00;96982.81;5075207;28;20278;-78
2023/08/02 04:02:16;;;;;;;2.93;1.90;;;;;;;16.68;100.00;96972.59;5061437;28;20227;-78
2023/08/02 04:04:41;;;;;;;3.03;1.70;;;;;;;16.71;100.00;96975.53;5055344;28;20201;-78
2023/08/02 04:07:09;;;;;;;4.57;1.80;;;;;;;16.65;100.00;96965.91;5070718;28;20273;-79
2023/08/02 04:09:36;;;;;;;1.77;1.30;;;;;;;16.69;100.00;96961.56;5071525;28;20220;-79
2023/08/02 04:12:02;;;;;;;2.03;1.63;;;;;;;16.68;100.00;96965.34;5076198;28;20670;-79
2023/08/02 04:14:29;;;;;;;2.27;1.67;;;;;;;16.83;100.00;96962.50;5058674;28;20201;-79
2023/08/02 04:16:55;;;;;;;1.57;1.47;;;;;;;16.79;100.00;96960.69;5055360;28;20201;-79
2023/08/02 04:19:21;;;;;;;2.70;1.80;;;;;;;16.72;100.00;96961.00;5055432;28;20225;-79
2023/08/02 04:21:48;;;;;;;2.57;1.60;;;;;;;16.73;100.00;96959.91;5055455;28;20209;-79
2023/08/02 04:24:15;;;;;;;4.13;1.60;;;;;;;16.75;100.00;96956.97;5062471;28;20240;-79
2023/08/02 04:26:41;;;;;;;3.87;1.90;;;;;;;16.76;100.00;96948.63;5066726;28;20671;-79
2023/08/02 04:29:08;;;;;;;2.20;1.80;;;;;;;16.66;100.00;96946.06;5075216;28;20224;-79
2023/08/02 04:31:34;;;;;;;2.80;1.70;;;;;;;16.59;100.00;96948.25;5058033;28;20563;-79
2023/08/02 04:34:00;;;;;;;3.43;1.90;;;;;;;16.58;100.00;96938.63;5064288;28;20224;-78
2023/08/02 04:36:27;;;;;;;3.00;1.73;;;;;;;16.43;100.00;96935.28;5065017;28;20203;-78
2023/08/02 04:38:53;;;;;;;5.07;2.07;;;;;;;16.41;100.00;96930.19;5062209;28;20583;-79
2023/08/02 04:41:20;;;;;;;2.60;1.90;;;;;;;16.35;100.00;96931.28;5063447;28;20204;-78
2023/08/02 04:43:47;;;;;;;2.20;1.80;;;;;;;16.27;100.00;96931.09;5061023;28;20239;-78
2023/08/02 04:46:14;;;;;;;3.47;2.10;;;;;;;16.18;100.00;96933.59;5055461;28;20220;-78
2023/08/02 04:48:40;;;;;;;2.80;2.00;;;;;;;16.20;100.00;96928.72;5054875;28;20235;-79
2023/08/02 04:51:11;;;;;;;2.97;2.10;;;;;;;16.19;100.00;96926.34;5055366;28;20515;-79
2023/08/02 04:53:37;;;;;;;3.83;2.17;;;;;;;16.08;100.00;96914.91;5060408;28;20272;-78
2023/08/02 04:56:03;;;;;;;2.47;2.13;;;;;;;16.10;100.00;96915.41;5068740;28;20603;-78
2023/08/02 04:58:30;;;;;;;3.57;2.30;;;;;;;16.04;100.00;96908.50;5071402;28;20212;-78
2023/08/02 05:01:02;;;;;;;2.63;2.00;;;;;;;16.01;100.00;96909.06;5074925;28;20575;-78
2023/08/02 05:03:28;;;;;;;2.83;1.90;;;;;;;15.86;100.00;96911.88;5074602;28;20193;-77
2023/08/02 05:06:06;;;;;;;2.80;2.10;;;;;;;15.80;100.00;96907.63;5074125;28;20208;-77
2023/08/02 05:08:35;;;;;;;3.73;2.33;;;;;;;15.77;100.00;96910.06;5073982;28;20570;-77
2023/08/02 05:11:05;;;;;;;3.70;2.00;;;;;;;15.70;100.00;96913.03;5074596;28;20208;-77
2023/08/02 05:13:31;;;;;;;3.53;2.13;;;;;;;15.59;100.00;96910.72;5074414;28;20614;-78
2023/08/02 05:15:58;;;;;;;3.20;2.10;;;;;;;15.61;100.00;96909.34;5075124;28;20211;-77
2023/08/02 05:18:24;;;;;;;3.43;2.57;;;;;;;15.45;100.00;96905.19;5075980;28;20246;-77
2023/08/02 05:20:51;;;;;;;3.10;2.67;;;;;;;15.42;100.00;96911.09;5076047;28;20205;-77
2023/08/02 05:23:17;;;;;;;3.60;2.40;;;;;;;15.42;100.00;96910.31;5075954;28;20211;-74
2023/08/02 05:25:43;;;;;;;2.40;2.20;;;;;;;15.42;100.00;96903.06;5075809;28;20217;-74
2023/08/02 05:28:10;;;;;;;3.80;2.40;;;;;;;15.31;100.00;96890.78;5075291;28;20239;-74
2023/08/02 05:30:37;;;;;;;2.83;2.57;;;;;;;15.34;100.00;96898.28;5075908;28;20208;-74
2023/08/02 05:33:06;;;;;;;4.00;2.70;;;;;;;15.32;100.00;96897.72;5075540;28;20239;-74
2023/08/02 05:35:33;;;;;;;4.73;3.10;;;;;;;15.23;100.00;96886.00;5075619;28;20212;-74
2023/08/02 05:37:59;;;;;;;3.87;2.47;;;;;;;15.25;100.00;96883.81;5075317;28;20567;-74
2023/08/02 05:40:26;;;;;;;3.30;2.60;;;;;;;15.22;100.00;96883.59;5075461;28;20683;-74
2023/08/02 05:42:52;;;;;;;3.73;2.80;;;;;;;15.17;100.00;96887.13;5075391;28;20663;-74
2023/08/02 05:45:18;;;;;;;3.90;2.50;;;;;;;15.21;100.00;96890.84;5075385;28;20208;-74
2023/08/02 05:47:45;;;;;;;3.70;2.70;;;;;;;15.19;100.00;96882.28;5075022;28;20225;-74
2023/08/02 05:50:11;;;;;;;3.77;2.60;;;;;;;15.24;100.00;96879.56;5075129;28;20221;-74
2023/08/02 05:52:37;;;;;;;3.83;3.00;;;;;;;15.22;100.00;96873.69;5075499;28;20204;-74
2023/08/02 05:55:04;;;;;;;3.30;3.00;;;;;;;15.29;100.00;96860.78;5075385;28;20216;-74
2023/08/02 05:57:30;;;;;;;3.60;2.97;;;;;;;15.31;100.00;96860.50;5075224;28;20207;-74
2023/08/02 05:59:57;;;;;;;4.37;2.90;;;;;;;15.36;100.00;96864.00;5075230;28;20221;-74
2023/08/02 06:02:23;;;;;;;6.47;3.10;;;;;;;15.37;100.00;96854.88;5075502;28;20208;-73
2023/08/02 06:04:49;;;;;;;3.80;2.83;;;;;;;15.28;100.00;96863.75;5075100;28;20205;-74
2023/08/02 06:07:16;;;;;;;4.03;2.93;;;;;;;15.24;100.00;96863.50;5075104;28;20227;-73
2023/08/02 06:09:42;;;;;;;5.07;3.23;;;;;;;15.24;100.00;96865.41;5074866;28;20228;-73
2023/08/02 06:12:09;;;;;;;5.17;3.23;;;;;;;15.25;100.00;96862.41;5074302;28;20204;-73
2023/08/02 06:14:35;;;;;;;4.20;3.27;;;;;;;15.24;100.00;96871.53;5074979;28;20555;-73
2023/08/02 06:17:01;;;;;;;4.33;3.10;;;;;;;15.27;100.00;96852.25;5074617;28;20573;-74
2023/08/02 06:19:28;;;;;;;4.53;3.10;;;;;;;15.21;100.00;96849.88;5074442;28;20718;-74
2023/08/02 06:21:54;;;;;;;4.27;3.13;;;;;;;15.21;100.00;96855.22;5074599;28;20211;-74
2023/08/02 06:24:21;;;;;;;5.47;3.53;;;;;;;15.25;100.00;96843.66;5074872;28;20211;-74
2023/08/02 06:26:48;;;;;;;5.83;3.33;;;;;;;15.31;100.00;96837.22;5074775;28;20243;-73
2023/08/02 06:29:14;;;;;;;3.70;2.90;;;;;;;15.31;100.00;96839.09;5074182;28;20234;-73
2023/08/02 06:31:40;;;;;;;4.93;3.43;;;;;;;15.30;100.00;96834.81;5074495;28;20204;-73
2023/08/02 06:34:07;;;;;;;4.40;3.60;;;;;;;15.37;100.00;96832.69;5074228;28;20211;-73
2023/08/02 06:36:34;;;;;;;4.03;3.37;;;;;;;15.35;100.00;96827.59;5074412;28;20209;-73
2023/08/02 06:39:00;;;;;;;4.40;3.80;;;;;;;15.41;100.00;96826.47;5074092;28;20226;-74
2023/08/02 06:41:27;;;;;;;4.20;3.63;;;;;;;15.35;100.00;96835.63;5074219;28;20204;-74
2023/08/02 06:43:53;;;;;;;6.07;3.50;;;;;;;15.32;100.00;96809.38;5074155;28;20204;-73
2023/08/02 06:46:19;;;;;;;5.07;3.43;;;;;;;15.35;100.00;96803.50;5074247;28;20212;-73
2023/08/02 06:48:46;;;;;;;7.00;3.93;;;;;;;15.37;100.00;96795.97;5074162;28;20232;-78
2023/08/02 06:51:12;;;;;;;5.20;3.70;;;;;;;15.37;100.00;96789.81;5074385;28;20204;-78
2023/08/02 06:53:39;;;;;;;5.17;4.07;;;;;;;15.38;100.00;96786.06;5074203;28;20215;-78
2023/08/02 06:56:16;;;;;;;4.97;4.10;;;;;;;15.40;100.00;96797.28;5074579;28;20201;-78
2023/08/02 06:58:43;;;;;;;4.50;4.10;;;;;;;15.47;100.00;96790.53;5074062;28;20594;-77
2023/08/02 07:01:13;;;;;;;7.17;4.23;;;;;;;15.59;100.00;96787.47;5074170;28;20200;-78
2023/08/02 07:03:39;;;;;;;7.07;4.27;;;;;;;15.57;100.00;96787.78;5074041;28;20226;-78
2023/08/02 07:06:10;;;;;;;7.67;4.50;;;;;;;15.56;100.00;96780.81;5074222;28;20207;-78
2023/08/02 07:08:38;;;;;;;5.23;4.47;;;;;;;15.58;100.00;96781.34;5073941;28;20725;-78
2023/08/02 07:11:05;;;;;;;8.27;5.33;;;;;;;15.53;100.00;96778.72;5073893;28;20211;-78
2023/08/02 07:13:32;;;;;;;5.63;4.90;;;;;;;15.54;100.00;96766.91;5074011;28;20211;-78
2023/08/02 07:16:00;;;;;;;6.87;5.30;;;;;;;15.61;100.00;96769.28;5074001;28;20207;-74
2023/08/02 07:18:26;;;;;;;5.87;4.93;;;;;;;15.57;100.00;96771.72;5073673;28;20255;-74
2023/08/02 07:20:53;;;;;;;5.53;4.70;;;;;;;15.61;100.00;96764.69;5073436;28;20223;-73
2023/08/02 07:23:20;;;;;;;6.50;5.13;;;;;;;15.60;100.00;96771.13;5072732;28;20210;-73
2023/08/02 07:25:46;;;;;;;7.63;5.47;;;;;;;15.63;100.00;96753.69;5073339;28;20222;-73
2023/08/02 07:28:12;;;;;;;8.73;5.80;;;;;;;15.77;100.00;96750.09;5072987;28;20236;-73
2023/08/02 07:30:39;;;;;;;6.17;5.10;;;;;;;15.82;100.00;96744.66;5073387;28;20667;-73
2023/08/02 07:33:05;;;;;;;7.67;5.70;;;;;;;15.93;100.00;96748.06;5073569;28;20208;-73
2023/08/02 07:35:36;;;;;;;9.77;5.90;;;;;;;16.02;100.00;96741.78;5073396;28;20215;-74
2023/08/02 07:38:02;;;;;;;7.47;5.93;;;;;;;16.07;100.00;96724.84;5073250;28;20184;-74
2023/08/02 07:40:29;;;;;;;8.37;5.67;;;;;;;16.10;100.00;96727.75;5073480;28;20663;-74
2023/08/02 07:42:55;;;;;;;7.20;5.83;;;;;;;16.20;100.00;96724.94;5073646;28;20207;-74
2023/08/02 07:45:22;;;;;;;7.03;5.70;;;;;;;16.34;100.00;96720.50;5073345;28;20206;-74
2023/08/02 07:47:48;;;;;;;6.73;4.90;;;;;;;16.38;100.00;96716.13;5073058;28;20224;-74
2023/08/02 07:50:14;;;;;;;6.20;4.80;;;;;;;16.34;100.00;96709.78;5073316;28;20227;-74
2023/08/02 07:52:41;;;;;;;6.13;5.53;;;;;;;16.49;100.00;96712.28;5073427;28;20215;-74
2023/08/02 07:55:08;;;;;;;6.67;5.60;;;;;;;16.54;100.00;96714.91;5072974;28;20208;-74
2023/08/02 07:57:35;;;;;;;7.73;5.83;;;;;;;16.55;100.00;96708.44;5073443;28;20295;-74
2023/08/02 08:00:03;;;;;;;6.50;5.87;;;;;;;16.58;100.00;96709.75;5072924;28;20610;-74
2023/08/02 08:02:29;;;;;;;8.00;5.93;;;;;;;16.66;100.00;96704.53;5072776;28;20235;-74
2023/08/02 08:04:56;;;;;;;9.43;5.87;;;;;;;16.63;100.00;96699.75;5072846;28;20575;-74
2023/08/02 08:07:22;;;;;;;5.67;5.23;;;;;;;16.55;100.00;96708.44;5072617;28;20211;-74
2023/08/02 08:09:51;;;;;;;5.93;5.30;;;;;;;16.59;100.00;96696.03;5073065;28;20250;-74
2023/08/02 08:12:18;;;;;;;6.13;4.67;;;;;;;16.55;100.00;96695.03;5073289;28;20211;-73
2023/08/02 08:14:44;;;;;;;6.03;4.40;;;;;;;16.54;100.00;96693.44;5073017;28;20212;-73
2023/08/02 08:17:10;;;;;;;4.87;4.00;;;;;;;16.53;100.00;96683.81;5072921;28;20200;-73
2023/08/02 08:19:37;;;;;;;5.93;4.67;;;;;;;16.56;100.00;96682.41;5072537;28;20620;-74
2023/08/02 08:22:04;;;;;;;5.63;4.40;;;;;;;16.57;100.00;96676.78;5073114;28;20200;-74
2023/08/02 08:24:30;;;;;;;4.10;3.53;;;;;;;16.62;100.00;96667.84;5073054;28;20287;-73
2023/08/02 08:26:57;;;;;;;4.03;3.70;;;;;;;16.67;100.00;96659.72;5072585;28;20212;-74
2023/08/02 08:29:23;;;;;;;3.93;3.63;;;;;;;16.65;100.00;96657.31;5073076;28;20250;-74
2023/08/02 08:31:49;;;;;;;5.50;4.33;;;;;;;16.72;100.00;96662.31;5073122;28;20205;-74
2023/08/02 08:34:16;;;;;;;4.50;3.67;;;;;;;16.80;100.00;96654.41;5073650;28;20207;-74
2023/08/02 08:36:42;;;;;;;4.23;3.13;;;;;;;16.75;100.00;96657.19;5076920;28;20200;-74
2023/08/02 08:39:08;;;;;;;3.73;3.30;;;;;;;16.80;100.00;96659.78;5076504;28;20231;-74
2023/08/02 08:41:35;;;;;;;3.53;3.13;;;;;;;16.79;100.00;96649.34;5076550;28;20690;-74
2023/08/02 08:44:03;;;;;;;4.40;3.10;;;;;;;16.83;100.00;96643.09;5076760;28;20295;-74
2023/08/02 08:46:33;;;;;;;3.93;3.40;;;;;;;16.89;100.00;96639.25;5076646;28;20211;-74
2023/08/02 08:49:01;;;;;;;3.93;3.43;;;;;;;16.84;100.00;96633.97;5076677;28;20233;-74
2023/08/02 08:51:28;;;;;;;3.40;3.10;;;;;;;16.87;100.00;96627.22;5076285;28;20570;-74
2023/08/02 08:53:55;;;;;;;3.17;2.93;;;;;;;16.97;100.00;96619.75;5076052;28;20693;-74
2023/08/02 08:56:25;;;;;;;3.70;3.40;;;;;;;16.93;100.00;96632.22;5076297;28;20211;-74
2023/08/02 08:58:53;;;;;;;3.97;3.40;;;;;;;16.95;100.00;96611.22;5076407;28;20221;-74
2023/08/02 09:01:20;;;;;;;3.47;3.17;;;;;;;16.90;100.00;96624.72;5076294;28;20208;-73
2023/08/02 09:03:46;;;;;;;4.57;3.80;;;;;;;16.93;100.00;96620.66;5076241;28;20217;-74
2023/08/02 09:06:15;;;;;;;4.40;3.37;;;;;;;16.89;100.00;96611.59;5076053;28;20208;-74
2023/08/02 09:08:47;;;;;;;3.63;3.33;;;;;;;16.90;100.00;96622.03;5076126;28;20236;-74
2023/08/02 09:11:15;;;;;;;3.70;3.07;;;;;;;16.89;100.00;96620.47;5075922;28;20254;-73
2023/08/02 09:13:42;;;;;;;3.07;2.73;;;;;;;16.93;100.00;96610.72;5076023;28;20287;-73
2023/08/02 09:16:16;;;;;;;3.57;3.27;;;;;;;16.89;100.00;96625.03;5076124;28;20578;-74
2023/08/02 09:18:44;;;;;;;3.43;3.13;;;;;;;16.89;100.00;96620.47;5075986;28;20345;-74
2023/08/02 09:21:14;;;;;;;5.07;3.00;;;;;;;16.96;100.00;96615.50;5075643;28;20242;-74
2023/08/02 09:23:46;;;;;;;3.60;3.30;;;;;;;17.03;100.00;96599.81;5075668;28;20227;-74
2023/08/02 09:26:18;;;;;;;4.73;3.77;;;;;;;17.03;100.00;96607.06;5075750;28;20232;-74
2023/08/02 09:29:04;;;;;;;4.60;3.50;;;;;;;17.03;100.00;96605.19;5075612;28;20228;-74
2023/08/02 09:31:32;;;;;;;3.40;3.10;;;;;;;17.09;100.00;96601.31;5075891;28;20215;-74
2023/08/02 09:33:59;;;;;;;4.00;3.53;;;;;;;17.07;100.00;96600.81;5075768;28;20208;-74
2023/08/02 09:36:33;;;;;;;3.97;3.67;;;;;;;17.12;100.00;96589.19;5075827;28;20214;-74
2023/08/02 09:39:14;;;;;;;7.40;3.57;;;;;;;17.24;100.00;96592.19;5075764;28;20231;-74
2023/08/02 09:41:40;;;;;;;3.60;3.30;;;;;;;17.33;100.00;96585.06;5075745;28;20204;-74
2023/08/02 09:44:07;;;;;;;4.23;3.70;;;;;;;17.36;100.00;96582.56;5075606;28;20215;-74
2023/08/02 09:46:36;;;;;;;5.70;3.63;;;;;;;17.43;100.00;96569.59;5074083;28;20201;-74
2023/08/02 09:49:16;;;;;;;3.60;3.30;;;;;;;17.45;100.00;96570.06;5075430;28;20328;-74
2023/08/02 09:51:44;;;;;;;4.87;3.60;;;;;;;17.53;100.00;96561.31;5075582;28;20205;-74
2023/08/02 09:54:13;;;;;;;5.47;3.57;;;;;;;17.52;100.00;96565.09;5075418;28;20211;-74
2023/08/02 09:56:40;;;;;;;4.10;3.60;;;;;;;17.48;100.00;96566.78;5074951;28;20668;-74
2023/08/02 09:59:08;;;;;;;5.17;3.90;;;;;;;17.54;100.00;96572.84;5075086;28;20699;-74
2023/08/02 10:01:35;;;;;;;4.10;3.70;;;;;;;17.59;100.00;96576.25;5075403;28;20209;-74
2023/08/02 10:04:10;;;;;;;4.20;3.80;;;;;;;17.65;100.00;96564.28;5075335;28;20220;-74
2023/08/02 10:06:43;;;;;;;4.40;4.00;;;;;;;17.72;100.00;96564.69;5075186;28;20208;-74
2023/08/02 10:09:12;;;;;;;4.30;3.90;;;;;;;17.78;100.00;96560.78;5074938;28;20232;-74
2023/08/02 10:11:45;;;;;;;4.33;3.93;;;;;;;17.86;100.00;96538.59;5074963;28;20303;-74
2023/08/02 10:14:13;;;;;;;3.90;3.60;;;;;;;18.10;100.00;96527.59;5074567;28;20193;-77
2023/08/02 10:16:41;;;;;;;4.93;4.30;;;;;;;18.22;100.00;96536.72;5074971;28;20205;-78
2023/08/02 10:19:08;;;;;;;4.60;3.77;;;;;;;18.34;100.00;96533.50;5074826;28;20225;-77
2023/08/02 10:21:36;;;;;;;4.50;4.10;;;;;;;18.34;100.00;96531.63;5075093;28;20200;-78
2023/08/02 10:24:03;;;;;;;4.00;3.70;;;;;;;18.42;100.00;96527.41;5074969;28;20207;-77
2023/08/02 10:26:31;;;;;;;4.40;4.00;;;;;;;18.38;100.00;96529.94;5074361;28;20578;-78
2023/08/02 10:28:59;;;;;;;4.77;4.17;;;;;;;18.47;100.00;96538.06;5074083;28;20231;-78
2023/08/02 10:31:27;;;;;;;4.00;3.60;;;;;;;18.45;100.00;96513.31;5074062;28;20211;-77
2023/08/02 10:33:54;;;;;;;5.43;4.20;;;;;;;18.52;100.00;96513.72;5074699;28;20571;-77
2023/08/02 10:36:20;;;;;;;5.30;4.57;;;;;;;18.45;100.00;96514.13;5074607;28;20295;-78
2023/08/02 10:38:49;;;;;;;4.37;3.97;;;;;;;18.39;100.00;96528.81;5074159;28;20725;-77
2023/08/02 10:41:17;;;;;;;5.30;4.80;;;;;;;18.28;100.00;96503.19;5074721;28;20230;-74
2023/08/02 10:43:53;;;;;;;5.57;4.57;;;;;;;18.26;100.00;96493.84;5074431;28;20200;-74
2023/08/02 10:46:24;;;;;;;5.03;4.60;;;;;;;18.21;100.00;96504.72;5074300;28;20207;-74
2023/08/02 10:48:51;;;;;;;7.33;4.33;;;;;;;18.12;100.00;96507.34;5074205;28;20231;-74
2023/08/02 10:51:30;;;;;;;6.70;4.67;;;;;;;18.13;100.00;96500.06;5074063;28;20200;-74
2023/08/02 10:54:19;;;;;;;7.57;4.60;;;;;;;18.15;100.00;96495.97;5074167;28;20612;-74
2023/08/02 10:56:54;;;;;;;6.93;4.83;;;;;;;18.08;100.00;96486.75;5074081;28;20193;-74
2023/08/02 10:59:23;;;;;;;5.00;4.33;;;;;;;18.19;100.00;96461.22;5073650;28;20220;-74
2023/08/02 11:02:07;;;;;;;6.80;4.63;;;;;;;18.20;100.00;96473.56;5073869;28;20292;-73
2023/08/02 11:04:37;;;;;;;6.50;4.70;;;;;;;18.20;100.00;96463.59;5073703;28;20235;-73
2023/08/02 11:07:21;;;;;;;4.80;4.30;;;;;;;18.41;100.00;96463.94;5074770;28;20204;-74
2023/08/02 11:09:54;;;;;;;5.77;4.23;;;;;;;18.39;100.00;96453.47;5073819;28;20224;-74
2023/08/02 11:12:22;;;;;;;5.37;4.00;;;;;;;18.44;100.00;96453.34;5074020;28;20199;-74
2023/08/02 11:14:51;;;;;;;4.37;3.97;;;;;;;18.48;100.00;96451.63;5073869;28;20216;-74
2023/08/02 11:17:22;;;;;;;5.17;4.33;;;;;;;18.70;100.00;96462.38;5073693;28;20291;-74
2023/08/02 11:19:50;;;;;;;6.47;4.40;;;;;;;18.59;100.00;96450.25;5073584;28;20223;-74
2023/08/02 11:22:17;;;;;;;5.40;4.33;;;;;;;18.58;100.00;96462.16;5073786;28;20242;-74
2023/08/02 11:24:50;;;;;;;5.23;4.70;;;;;;;18.57;100.00;96446.31;5073736;28;20215;-74
2023/08/02 11:27:26;;;;;;;4.93;4.33;;;;;;;18.66;100.00;96433.69;5073426;28;20240;-74